CYLD

Chapleau Airport

Chapleau, Ontario, Canada
METAR CYLD 260100Z 22006KT 200V260 15SM BKN032 OVC100 21/15 A2971 RMK SC6AC2 CIG RAG LAST STFD OBS/NEXT 261000UTC SLP067 DENSITY ALT 2800FT
Observed Flight Rules
May-26 @ 01:00 UTC (3 hours ago) Visual Flight Rules
Wind Visibility Clouds
220° at 6 knots 15 miles
  • Broken at 3,200' AGL
  • Overcast at 10,000' AGL
Temperatures Readings
Current 21°C / 70°F
Dewpoint 15°C / 59°F
Humidity 69%
Altimeter 29.71" Hg
Pressure 1006.7 hPa
Elevation 447
METAR CYLD 260100Z 22006KT 200V260 15SM BKN032 OVC100 21/15 A2971 RMK SC6AC2 CIG RAG LAST STFD OBS/NEXT 261000UTC SLP067 DENSITY ALT 2800FT
Observed Flight Rules
May-26 @ 01:00 UTC
(3 hours ago)
VFR
Wind Visibility
220° at 6 knots 15 miles
Clouds
  • Broken at 3,200' AGL
  • Overcast at 10,000' AGL
Temperature Dewpoint
21°C / 70°F 15°C / 59°F
Humidity Altimeter Pressure
69% 29.71" Hg 1006.7 hPa